Shanksville, PA (15560)

3:05 PM EST on February 01, 2015 (GMT -0500)
Berlin Borough | Change Station
CLOSE
Current Station
Personal Weather Station
Location: Berlin, PA
Elevation: 2306 ft
Nearby Weather Stations
Active Advisory: Winter Weather Advisory

Elev 2306 ft 39.92 °N, 78.95 °W | Updated 15 minutes ago

Snow
Snow
35.8 °F
Feels Like 33 °F
N
3.2
Wind Variable Wind from NNE

Today
High -- | Low -- °F
--% Chance of Precip.
Yesterday
High -- | Low -- °F
Precip. -- in
7:24 AM 5:34 PM
Waxing Gibbous, 96% visible
Pressure 29.99 in
Visibility 0.5 miles
Clouds Mostly Cloudy 400 ft
Overcast 800 ft
Windchill 33 °F
Dew Point 32 °F
Humidity 87%
Rainfall 0.11 in
Snow Depth Not available.
UV 1 out of 12
Pollen .10 out of 12
Air Quality Not available.
Flu Activity Not available.
METAR KJST 011954Z AUTO 15006KT 1/2SM SN FG BKN004 OVC008 01/M01 A2991 RMK AO2 SLP154 P0004 T00061006

More Conditions Fewer Conditions

Pressure 29.99 in
Visibility 0.5 miles
Clouds Mostly Cloudy 400 ft
Overcast 800 ft
Windchill 33 °F
Dew Point 32 °F
Humidity 87%
Rainfall 0.11 in
Snow Depth Not available.
UV 1 out of 12
Pollen .10 out of 12
Air Quality Not available.
Flu Activity Not available.
METAR KJST 011954Z AUTO 15006KT 1/2SM SN FG BKN004 OVC008 01/M01 A2991 RMK AO2 SLP154 P0004 T00061006

More Conditions Fewer Conditions

Nowcast | as of 1:31 PM EST on February 1, 2015

Periods of snow will increase in both coverage and intensity this afternoon...ahead of approaching low pressure over the mid- Mississippi Valley. Untreated surfaces may begin to become snow- covered and slick as the afternoon progresses.

×

10-Day Weather Forecast

Almanac

Astronomy

Feb. 01, 2015 Rise Set
Actual Time
Civil Twilight
Nautical Twilight
Astronomical Twilight
Moon
Length of Visible Light
Length of Day
Tomorrow will be .
, % of the Moon is Illuminated

Today's Extremes

State Highs State Lows

Community

WunderPhotos

Upload Photos

1,792,480 photos uploaded!

WunderBlogs® & News

Nearby

Air Quality

  Air Quality AQ Index Pollutant
Not available.

Snow Depth

Station Depth Elevation

Earthquake Activity

City Distance Mag. Time & Date
Minimum magnitude displayed is 2.5.

Coastal Water Temperatures

Place Temperature

Nearby Weather Stations